sensor_id;sensor_type;location;lat;lon;timestamp;P1;durP1;ratioP1;P2;durP2;ratioP2
17052;SDS011;8643;48.824;11.422;2022-09-03T00:02:11;4.53;;;1.95;;
17052;SDS011;8643;48.824;11.422;2022-09-03T00:04:50;5.65;;;1.98;;
17052;SDS011;8643;48.824;11.422;2022-09-03T00:07:29;2.78;;;1.90;;
17052;SDS011;8643;48.824;11.422;2022-09-03T00:10:10;3.35;;;1.80;;
17052;SDS011;8643;48.824;11.422;2022-09-03T00:12:46;2.60;;;1.88;;
17052;SDS011;8643;48.824;11.422;2022-09-03T00:15:19;4.45;;;1.80;;
17052;SDS011;8643;48.824;11.422;2022-09-03T00:17:51;3.25;;;2.05;;
17052;SDS011;8643;48.824;11.422;2022-09-03T00:20:26;2.55;;;1.75;;
17052;SDS011;8643;48.824;11.422;2022-09-03T00:23:02;3.08;;;1.85;;
17052;SDS011;8643;48.824;11.422;2022-09-03T00:25:36;3.20;;;2.10;;
17052;SDS011;8643;48.824;11.422;2022-09-03T00:28:10;4.22;;;1.83;;
17052;SDS011;8643;48.824;11.422;2022-09-03T00:30:45;3.00;;;1.77;;
17052;SDS011;8643;48.824;11.422;2022-09-03T00:33:24;2.70;;;1.88;;
17052;SDS011;8643;48.824;11.422;2022-09-03T00:36:02;4.28;;;2.00;;
17052;SDS011;8643;48.824;11.422;2022-09-03T00:38:42;3.22;;;2.17;;
17052;SDS011;8643;48.824;11.422;2022-09-03T00:41:15;4.85;;;1.90;;
17052;SDS011;8643;48.824;11.422;2022-09-03T00:44:01;3.83;;;1.90;;
17052;SDS011;8643;48.824;11.422;2022-09-03T00:47:09;4.60;;;2.15;;
17052;SDS011;8643;48.824;11.422;2022-09-03T00:49:48;2.35;;;1.80;;
17052;SDS011;8643;48.824;11.422;2022-09-03T00:52:34;4.65;;;1.80;;
17052;SDS011;8643;48.824;11.422;2022-09-03T00:55:19;2.85;;;1.80;;
17052;SDS011;8643;48.824;11.422;2022-09-03T00:58:03;2.72;;;1.90;;
17052;SDS011;8643;48.824;11.422;2022-09-03T01:00:52;2.38;;;1.70;;
17052;SDS011;8643;48.824;11.422;2022-09-03T01:03:22;5.00;;;1.80;;
17052;SDS011;8643;48.824;11.422;2022-09-03T01:06:09;3.33;;;1.88;;
17052;SDS011;8643;48.824;11.422;2022-09-03T01:11:50;5.30;;;2.10;;
17052;SDS011;8643;48.824;11.422;2022-09-03T01:14:30;3.60;;;1.60;;
17052;SDS011;8643;48.824;11.422;2022-09-03T01:17:15;2.42;;;1.65;;
17052;SDS011;8643;48.824;11.422;2022-09-03T01:20:06;3.50;;;1.80;;
17052;SDS011;8643;48.824;11.422;2022-09-03T01:26:04;4.45;;;1.58;;
17052;SDS011;8643;48.824;11.422;2022-09-03T01:28:58;2.45;;;1.63;;
17052;SDS011;8643;48.824;11.422;2022-09-03T01:31:40;5.05;;;1.90;;
17052;SDS011;8643;48.824;11.422;2022-09-03T01:34:22;1.92;;;1.60;;
17052;SDS011;8643;48.824;11.422;2022-09-03T01:37:10;3.22;;;1.58;;
17052;SDS011;8643;48.824;11.422;2022-09-03T01:39:54;2.78;;;1.83;;
17052;SDS011;8643;48.824;11.422;2022-09-03T01:42:38;2.42;;;1.65;;
17052;SDS011;8643;48.824;11.422;2022-09-03T01:45:31;3.78;;;1.60;;
17052;SDS011;8643;48.824;11.422;2022-09-03T01:48:20;4.22;;;1.77;;
17052;SDS011;8643;48.824;11.422;2022-09-03T01:51:06;3.88;;;1.70;;
17052;SDS011;8643;48.824;11.422;2022-09-03T01:53:55;1.70;;;1.60;;
17052;SDS011;8643;48.824;11.422;2022-09-03T01:56:55;3.80;;;1.80;;
17052;SDS011;8643;48.824;11.422;2022-09-03T02:00:04;1.92;;;1.73;;
17052;SDS011;8643;48.824;11.422;2022-09-03T02:02:40;3.65;;;1.70;;
17052;SDS011;8643;48.824;11.422;2022-09-03T02:05:14;3.33;;;1.88;;
17052;SDS011;8643;48.824;11.422;2022-09-03T02:07:44;2.53;;;1.60;;
17052;SDS011;8643;48.824;11.422;2022-09-03T02:10:18;3.78;;;1.85;;
17052;SDS011;8643;48.824;11.422;2022-09-03T02:12:53;2.63;;;1.50;;
17052;SDS011;8643;48.824;11.422;2022-09-03T02:15:27;3.50;;;1.80;;
17052;SDS011;8643;48.824;11.422;2022-09-03T02:18:00;2.58;;;1.70;;
17052;SDS011;8643;48.824;11.422;2022-09-03T02:20:34;4.00;;;1.70;;
17052;SDS011;8643;48.824;11.422;2022-09-03T02:23:04;3.03;;;1.70;;
17052;SDS011;8643;48.824;11.422;2022-09-03T02:25:33;5.53;;;1.67;;
17052;SDS011;8643;48.824;11.422;2022-09-03T02:28:06;4.32;;;1.63;;
17052;SDS011;8643;48.824;11.422;2022-09-03T02:30:43;2.25;;;1.50;;
17052;SDS011;8643;48.824;11.422;2022-09-03T02:33:12;4.32;;;1.98;;
17052;SDS011;8643;48.824;11.422;2022-09-03T02:35:42;1.83;;;1.52;;
17052;SDS011;8643;48.824;11.422;2022-09-03T02:38:12;1.67;;;1.50;;
17052;SDS011;8643;48.824;11.422;2022-09-03T02:40:45;2.03;;;1.40;;
17052;SDS011;8643;48.824;11.422;2022-09-03T02:43:14;2.40;;;1.70;;
17052;SDS011;8643;48.824;11.422;2022-09-03T02:45:52;2.97;;;1.80;;
17052;SDS011;8643;48.824;11.422;2022-09-03T02:48:29;2.78;;;1.70;;
17052;SDS011;8643;48.824;11.422;2022-09-03T02:50:58;3.40;;;1.60;;
17052;SDS011;8643;48.824;11.422;2022-09-03T02:53:33;2.15;;;1.58;;
17052;SDS011;8643;48.824;11.422;2022-09-03T02:56:04;2.90;;;1.60;;
17052;SDS011;8643;48.824;11.422;2022-09-03T02:58:33;2.50;;;1.83;;
17052;SDS011;8643;48.824;11.422;2022-09-03T03:01:01;6.18;;;1.42;;
17052;SDS011;8643;48.824;11.422;2022-09-03T03:03:32;3.50;;;1.70;;
17052;SDS011;8643;48.824;11.422;2022-09-03T03:06:01;2.10;;;1.48;;
17052;SDS011;8643;48.824;11.422;2022-09-03T03:08:32;3.15;;;1.60;;
17052;SDS011;8643;48.824;11.422;2022-09-03T03:11:00;3.33;;;1.60;;
17052;SDS011;8643;48.824;11.422;2022-09-03T03:13:30;2.88;;;1.80;;
17052;SDS011;8643;48.824;11.422;2022-09-03T03:15:59;1.63;;;1.40;;
17052;SDS011;8643;48.824;11.422;2022-09-03T03:18:33;1.60;;;1.50;;
17052;SDS011;8643;48.824;11.422;2022-09-03T03:21:05;2.42;;;1.60;;
17052;SDS011;8643;48.824;11.422;2022-09-03T03:23:36;2.17;;;1.60;;
17052;SDS011;8643;48.824;11.422;2022-09-03T03:26:06;2.67;;;1.70;;
17052;SDS011;8643;48.824;11.422;2022-09-03T03:28:37;2.08;;;1.60;;
17052;SDS011;8643;48.824;11.422;2022-09-03T03:31:07;2.85;;;1.92;;
17052;SDS011;8643;48.824;11.422;2022-09-03T03:33:38;2.58;;;1.73;;
17052;SDS011;8643;48.824;11.422;2022-09-03T03:36:07;1.70;;;1.60;;
17052;SDS011;8643;48.824;11.422;2022-09-03T03:38:39;3.90;;;1.70;;
17052;SDS011;8643;48.824;11.422;2022-09-03T03:41:11;3.53;;;1.60;;
17052;SDS011;8643;48.824;11.422;2022-09-03T03:43:43;1.92;;;1.70;;
17052;SDS011;8643;48.824;11.422;2022-09-03T03:46:12;2.60;;;1.70;;
17052;SDS011;8643;48.824;11.422;2022-09-03T03:48:42;1.95;;;1.58;;
17052;SDS011;8643;48.824;11.422;2022-09-03T03:51:14;4.35;;;1.90;;
17052;SDS011;8643;48.824;11.422;2022-09-03T03:53:43;3.28;;;1.65;;
17052;SDS011;8643;48.824;11.422;2022-09-03T03:56:13;4.32;;;1.90;;
17052;SDS011;8643;48.824;11.422;2022-09-03T03:58:42;4.22;;;1.65;;
17052;SDS011;8643;48.824;11.422;2022-09-03T04:01:11;4.22;;;1.70;;
17052;SDS011;8643;48.824;11.422;2022-09-03T04:03:44;2.38;;;1.58;;
17052;SDS011;8643;48.824;11.422;2022-09-03T04:06:14;3.95;;;1.70;;
17052;SDS011;8643;48.824;11.422;2022-09-03T04:08:46;2.08;;;1.65;;
17052;SDS011;8643;48.824;11.422;2022-09-03T04:11:17;3.10;;;1.70;;
17052;SDS011;8643;48.824;11.422;2022-09-03T04:13:47;1.98;;;1.60;;
17052;SDS011;8643;48.824;11.422;2022-09-03T04:16:18;2.20;;;1.60;;
17052;SDS011;8643;48.824;11.422;2022-09-03T04:18:49;2.28;;;1.75;;
17052;SDS011;8643;48.824;11.422;2022-09-03T04:21:20;2.20;;;1.77;;
17052;SDS011;8643;48.824;11.422;2022-09-03T04:23:51;2.65;;;1.50;;
17052;SDS011;8643;48.824;11.422;2022-09-03T04:26:22;2.53;;;1.83;;
17052;SDS011;8643;48.824;11.422;2022-09-03T04:28:53;2.40;;;1.58;;
17052;SDS011;8643;48.824;11.422;2022-09-03T04:31:23;2.15;;;1.67;;
17052;SDS011;8643;48.824;11.422;2022-09-03T04:33:54;3.67;;;1.83;;
17052;SDS011;8643;48.824;11.422;2022-09-03T04:36:23;3.10;;;2.00;;
17052;SDS011;8643;48.824;11.422;2022-09-03T04:38:54;2.35;;;1.60;;
17052;SDS011;8643;48.824;11.422;2022-09-03T04:41:26;2.08;;;1.60;;
17052;SDS011;8643;48.824;11.422;2022-09-03T04:43:56;3.53;;;1.98;;
17052;SDS011;8643;48.824;11.422;2022-09-03T04:46:26;2.05;;;1.60;;
17052;SDS011;8643;48.824;11.422;2022-09-03T04:49:00;2.40;;;1.58;;
17052;SDS011;8643;48.824;11.422;2022-09-03T04:51:29;1.85;;;1.60;;
17052;SDS011;8643;48.824;11.422;2022-09-03T04:53:58;2.15;;;1.80;;
17052;SDS011;8643;48.824;11.422;2022-09-03T04:56:29;2.30;;;1.92;;
17052;SDS011;8643;48.824;11.422;2022-09-03T04:59:00;2.65;;;1.70;;
17052;SDS011;8643;48.824;11.422;2022-09-03T05:01:32;6.85;;;2.00;;
17052;SDS011;8643;48.824;11.422;2022-09-03T05:04:04;3.88;;;2.22;;
17052;SDS011;8643;48.824;11.422;2022-09-03T05:06:34;4.63;;;1.90;;
17052;SDS011;8643;48.824;11.422;2022-09-03T05:09:03;2.85;;;1.70;;
17052;SDS011;8643;48.824;11.422;2022-09-03T05:11:33;2.85;;;2.15;;
17052;SDS011;8643;48.824;11.422;2022-09-03T05:14:01;2.15;;;1.60;;
17052;SDS011;8643;48.824;11.422;2022-09-03T05:16:31;2.67;;;1.60;;
17052;SDS011;8643;48.824;11.422;2022-09-03T05:18:59;2.45;;;1.70;;
17052;SDS011;8643;48.824;11.422;2022-09-03T05:21:30;2.42;;;1.83;;
17052;SDS011;8643;48.824;11.422;2022-09-03T05:24:01;2.42;;;1.73;;
17052;SDS011;8643;48.824;11.422;2022-09-03T05:26:31;3.53;;;1.63;;
17052;SDS011;8643;48.824;11.422;2022-09-03T05:29:05;2.20;;;1.80;;
17052;SDS011;8643;48.824;11.422;2022-09-03T05:31:35;4.18;;;1.65;;
17052;SDS011;8643;48.824;11.422;2022-09-03T05:34:05;1.77;;;1.60;;
17052;SDS011;8643;48.824;11.422;2022-09-03T05:36:40;6.78;;;1.80;;
17052;SDS011;8643;48.824;11.422;2022-09-03T05:39:08;3.22;;;1.70;;
17052;SDS011;8643;48.824;11.422;2022-09-03T05:41:37;3.72;;;1.90;;
17052;SDS011;8643;48.824;11.422;2022-09-03T05:44:05;3.35;;;1.80;;
17052;SDS011;8643;48.824;11.422;2022-09-03T05:46:33;2.83;;;1.92;;
17052;SDS011;8643;48.824;11.422;2022-09-03T05:49:03;4.82;;;1.95;;
17052;SDS011;8643;48.824;11.422;2022-09-03T05:51:34;2.33;;;2.00;;
17052;SDS011;8643;48.824;11.422;2022-09-03T05:54:06;4.07;;;1.90;;
17052;SDS011;8643;48.824;11.422;2022-09-03T05:56:35;6.05;;;2.10;;
17052;SDS011;8643;48.824;11.422;2022-09-03T05:59:07;3.03;;;1.60;;
17052;SDS011;8643;48.824;11.422;2022-09-03T06:01:37;4.88;;;1.98;;
17052;SDS011;8643;48.824;11.422;2022-09-03T06:04:17;2.08;;;1.50;;
17052;SDS011;8643;48.824;11.422;2022-09-03T06:06:47;2.33;;;1.80;;
17052;SDS011;8643;48.824;11.422;2022-09-03T06:09:18;5.28;;;2.13;;
17052;SDS011;8643;48.824;11.422;2022-09-03T06:11:48;4.35;;;2.08;;
17052;SDS011;8643;48.824;11.422;2022-09-03T06:14:18;2.03;;;1.70;;
17052;SDS011;8643;48.824;11.422;2022-09-03T06:16:47;3.15;;;2.00;;
17052;SDS011;8643;48.824;11.422;2022-09-03T06:19:18;3.47;;;1.92;;
17052;SDS011;8643;48.824;11.422;2022-09-03T06:21:47;4.22;;;2.10;;
17052;SDS011;8643;48.824;11.422;2022-09-03T06:24:17;2.90;;;2.03;;
17052;SDS011;8643;48.824;11.422;2022-09-03T06:26:53;2.83;;;2.15;;
17052;SDS011;8643;48.824;11.422;2022-09-03T06:29:22;4.53;;;2.00;;
17052;SDS011;8643;48.824;11.422;2022-09-03T06:31:50;2.45;;;1.90;;
17052;SDS011;8643;48.824;11.422;2022-09-03T06:34:19;9.38;;;1.98;;
17052;SDS011;8643;48.824;11.422;2022-09-03T06:36:50;3.95;;;1.95;;
17052;SDS011;8643;48.824;11.422;2022-09-03T06:39:21;3.00;;;1.90;;
17052;SDS011;8643;48.824;11.422;2022-09-03T06:41:51;3.80;;;1.80;;
17052;SDS011;8643;48.824;11.422;2022-09-03T06:44:27;2.67;;;1.90;;
17052;SDS011;8643;48.824;11.422;2022-09-03T06:46:55;3.25;;;2.05;;
17052;SDS011;8643;48.824;11.422;2022-09-03T06:49:26;3.13;;;2.03;;
17052;SDS011;8643;48.824;11.422;2022-09-03T06:51:56;5.03;;;2.00;;
17052;SDS011;8643;48.824;11.422;2022-09-03T06:54:26;4.60;;;1.90;;
17052;SDS011;8643;48.824;11.422;2022-09-03T06:56:54;3.85;;;1.80;;
17052;SDS011;8643;48.824;11.422;2022-09-03T06:59:23;2.50;;;2.13;;
17052;SDS011;8643;48.824;11.422;2022-09-03T07:01:52;2.35;;;1.70;;
17052;SDS011;8643;48.824;11.422;2022-09-03T07:04:20;6.05;;;2.13;;
17052;SDS011;8643;48.824;11.422;2022-09-03T07:06:50;3.25;;;2.00;;
17052;SDS011;8643;48.824;11.422;2022-09-03T07:09:18;2.70;;;2.03;;
17052;SDS011;8643;48.824;11.422;2022-09-03T07:11:48;4.63;;;2.13;;
17052;SDS011;8643;48.824;11.422;2022-09-03T07:14:16;2.78;;;2.10;;
17052;SDS011;8643;48.824;11.422;2022-09-03T07:16:47;2.67;;;2.00;;
17052;SDS011;8643;48.824;11.422;2022-09-03T07:19:16;2.65;;;1.92;;
17052;SDS011;8643;48.824;11.422;2022-09-03T07:21:45;3.90;;;2.00;;
17052;SDS011;8643;48.824;11.422;2022-09-03T07:24:16;3.50;;;2.03;;
17052;SDS011;8643;48.824;11.422;2022-09-03T07:26:50;2.83;;;2.20;;
17052;SDS011;8643;48.824;11.422;2022-09-03T07:29:18;4.05;;;2.22;;
17052;SDS011;8643;48.824;11.422;2022-09-03T07:31:47;2.78;;;2.13;;
17052;SDS011;8643;48.824;11.422;2022-09-03T07:34:18;2.65;;;2.15;;
17052;SDS011;8643;48.824;11.422;2022-09-03T07:36:51;2.92;;;2.20;;
17052;SDS011;8643;48.824;11.422;2022-09-03T07:39:20;3.88;;;2.10;;
17052;SDS011;8643;48.824;11.422;2022-09-03T07:41:50;2.80;;;2.22;;
17052;SDS011;8643;48.824;11.422;2022-09-03T07:44:19;2.75;;;2.20;;
17052;SDS011;8643;48.824;11.422;2022-09-03T07:46:49;6.32;;;2.28;;
17052;SDS011;8643;48.824;11.422;2022-09-03T07:49:18;4.55;;;2.38;;
17052;SDS011;8643;48.824;11.422;2022-09-03T07:51:47;2.95;;;2.08;;
17052;SDS011;8643;48.824;11.422;2022-09-03T07:54:19;4.03;;;2.40;;
17052;SDS011;8643;48.824;11.422;2022-09-03T07:56:50;2.67;;;2.40;;
17052;SDS011;8643;48.824;11.422;2022-09-03T07:59:19;3.35;;;2.25;;
17052;SDS011;8643;48.824;11.422;2022-09-03T08:01:48;4.82;;;2.10;;
17052;SDS011;8643;48.824;11.422;2022-09-03T08:04:17;3.80;;;2.47;;
17052;SDS011;8643;48.824;11.422;2022-09-03T08:06:47;7.35;;;2.30;;
17052;SDS011;8643;48.824;11.422;2022-09-03T08:09:20;2.75;;;2.30;;
17052;SDS011;8643;48.824;11.422;2022-09-03T08:11:48;3.47;;;2.33;;
17052;SDS011;8643;48.824;11.422;2022-09-03T08:14:18;5.25;;;2.10;;
17052;SDS011;8643;48.824;11.422;2022-09-03T08:16:47;3.55;;;2.03;;
17052;SDS011;8643;48.824;11.422;2022-09-03T08:19:16;2.25;;;2.05;;
17052;SDS011;8643;48.824;11.422;2022-09-03T08:21:45;3.65;;;2.28;;
17052;SDS011;8643;48.824;11.422;2022-09-03T08:24:14;3.35;;;2.22;;
17052;SDS011;8643;48.824;11.422;2022-09-03T08:26:46;3.55;;;2.38;;
17052;SDS011;8643;48.824;11.422;2022-09-03T08:29:19;3.15;;;2.30;;
17052;SDS011;8643;48.824;11.422;2022-09-03T08:31:48;4.78;;;2.15;;
17052;SDS011;8643;48.824;11.422;2022-09-03T08:34:17;3.95;;;2.17;;
17052;SDS011;8643;48.824;11.422;2022-09-03T08:36:46;3.35;;;2.28;;
17052;SDS011;8643;48.824;11.422;2022-09-03T08:39:15;4.43;;;2.40;;
17052;SDS011;8643;48.824;11.422;2022-09-03T08:42:01;4.25;;;2.63;;
17052;SDS011;8643;48.824;11.422;2022-09-03T08:44:49;2.50;;;2.10;;
17052;SDS011;8643;48.824;11.422;2022-09-03T08:47:24;5.05;;;2.38;;
17052;SDS011;8643;48.824;11.422;2022-09-03T08:50:00;4.30;;;2.40;;
17052;SDS011;8643;48.824;11.422;2022-09-03T08:52:39;3.95;;;2.35;;
17052;SDS011;8643;48.824;11.422;2022-09-03T08:55:16;5.28;;;2.65;;
17052;SDS011;8643;48.824;11.422;2022-09-03T08:57:52;5.10;;;2.30;;
17052;SDS011;8643;48.824;11.422;2022-09-03T09:00:34;29.88;;;7.55;;
17052;SDS011;8643;48.824;11.422;2022-09-03T09:03:22;42.22;;;11.32;;
17052;SDS011;8643;48.824;11.422;2022-09-03T09:06:20;5.28;;;2.20;;
17052;SDS011;8643;48.824;11.422;2022-09-03T09:09:05;4.72;;;2.60;;
17052;SDS011;8643;48.824;11.422;2022-09-03T09:11:54;7.20;;;2.42;;
17052;SDS011;8643;48.824;11.422;2022-09-03T09:14:44;4.03;;;2.20;;
17052;SDS011;8643;48.824;11.422;2022-09-03T09:17:35;9.68;;;3.03;;
17052;SDS011;8643;48.824;11.422;2022-09-03T09:20:28;5.07;;;2.72;;
17052;SDS011;8643;48.824;11.422;2022-09-03T09:23:09;3.72;;;2.92;;
17052;SDS011;8643;48.824;11.422;2022-09-03T09:25:45;6.10;;;2.90;;
17052;SDS011;8643;48.824;11.422;2022-09-03T09:28:17;6.15;;;2.60;;
17052;SDS011;8643;48.824;11.422;2022-09-03T09:30:48;6.53;;;3.03;;
17052;SDS011;8643;48.824;11.422;2022-09-03T09:33:21;4.22;;;2.78;;
17052;SDS011;8643;48.824;11.422;2022-09-03T09:35:51;5.28;;;2.72;;
17052;SDS011;8643;48.824;11.422;2022-09-03T09:38:26;5.22;;;2.40;;
17052;SDS011;8643;48.824;11.422;2022-09-03T09:41:06;3.42;;;2.45;;
17052;SDS011;8643;48.824;11.422;2022-09-03T09:43:37;4.32;;;2.70;;
17052;SDS011;8643;48.824;11.422;2022-09-03T09:46:07;4.38;;;2.70;;
17052;SDS011;8643;48.824;11.422;2022-09-03T09:48:45;4.53;;;2.50;;
17052;SDS011;8643;48.824;11.422;2022-09-03T09:51:19;3.67;;;2.60;;
17052;SDS011;8643;48.824;11.422;2022-09-03T09:53:59;3.00;;;2.33;;
17052;SDS011;8643;48.824;11.422;2022-09-03T09:56:28;3.72;;;2.50;;
17052;SDS011;8643;48.824;11.422;2022-09-03T09:59:01;4.07;;;2.63;;
17052;SDS011;8643;48.824;11.422;2022-09-03T10:01:31;3.28;;;2.60;;
17052;SDS011;8643;48.824;11.422;2022-09-03T10:04:08;5.00;;;2.55;;
17052;SDS011;8643;48.824;11.422;2022-09-03T10:06:39;3.78;;;2.78;;
17052;SDS011;8643;48.824;11.422;2022-09-03T10:09:23;5.15;;;2.95;;
17052;SDS011;8643;48.824;11.422;2022-09-03T10:12:01;5.65;;;2.90;;
17052;SDS011;8643;48.824;11.422;2022-09-03T10:14:41;6.43;;;2.95;;
17052;SDS011;8643;48.824;11.422;2022-09-03T10:17:18;4.03;;;2.92;;
17052;SDS011;8643;48.824;11.422;2022-09-03T10:20:06;4.70;;;2.60;;
17052;SDS011;8643;48.824;11.422;2022-09-03T10:22:58;6.60;;;2.85;;
17052;SDS011;8643;48.824;11.422;2022-09-03T10:25:39;4.90;;;2.72;;
17052;SDS011;8643;48.824;11.422;2022-09-03T10:28:29;5.57;;;2.90;;
17052;SDS011;8643;48.824;11.422;2022-09-03T10:31:09;4.45;;;2.95;;
17052;SDS011;8643;48.824;11.422;2022-09-03T10:33:50;5.88;;;2.42;;
17052;SDS011;8643;48.824;11.422;2022-09-03T10:36:30;5.65;;;2.88;;
17052;SDS011;8643;48.824;11.422;2022-09-03T10:39:08;6.15;;;2.90;;
17052;SDS011;8643;48.824;11.422;2022-09-03T10:41:46;3.35;;;3.05;;
17052;SDS011;8643;48.824;11.422;2022-09-03T10:44:34;5.35;;;2.80;;
17052;SDS011;8643;48.824;11.422;2022-09-03T10:47:29;4.35;;;2.83;;
17052;SDS011;8643;48.824;11.422;2022-09-03T10:50:32;4.93;;;3.08;;
17052;SDS011;8643;48.824;11.422;2022-09-03T10:53:18;3.65;;;3.22;;
17052;SDS011;8643;48.824;11.422;2022-09-03T10:56:09;3.90;;;2.88;;
17052;SDS011;8643;48.824;11.422;2022-09-03T10:58:56;3.92;;;2.90;;
17052;SDS011;8643;48.824;11.422;2022-09-03T11:01:44;3.00;;;2.47;;
17052;SDS011;8643;48.824;11.422;2022-09-03T11:04:31;5.30;;;3.40;;
17052;SDS011;8643;48.824;11.422;2022-09-03T11:07:16;4.63;;;3.17;;
17052;SDS011;8643;48.824;11.422;2022-09-03T11:09:49;4.75;;;3.03;;
17052;SDS011;8643;48.824;11.422;2022-09-03T11:12:30;5.07;;;2.95;;
17052;SDS011;8643;48.824;11.422;2022-09-03T11:15:06;5.68;;;3.20;;
17052;SDS011;8643;48.824;11.422;2022-09-03T11:17:52;5.88;;;4.07;;
17052;SDS011;8643;48.824;11.422;2022-09-03T11:20:27;8.45;;;3.70;;
17052;SDS011;8643;48.824;11.422;2022-09-03T11:22:58;6.22;;;4.00;;
17052;SDS011;8643;48.824;11.422;2022-09-03T11:25:33;5.05;;;3.70;;
17052;SDS011;8643;48.824;11.422;2022-09-03T11:28:12;3.75;;;3.40;;
17052;SDS011;8643;48.824;11.422;2022-09-03T11:31:01;5.10;;;3.30;;
17052;SDS011;8643;48.824;11.422;2022-09-03T11:33:45;4.07;;;3.05;;
17052;SDS011;8643;48.824;11.422;2022-09-03T11:36:27;6.30;;;3.50;;
17052;SDS011;8643;48.824;11.422;2022-09-03T11:38:58;6.45;;;3.60;;
17052;SDS011;8643;48.824;11.422;2022-09-03T11:41:30;7.30;;;3.58;;
17052;SDS011;8643;48.824;11.422;2022-09-03T11:44:10;6.45;;;3.65;;
17052;SDS011;8643;48.824;11.422;2022-09-03T11:46:54;5.22;;;3.85;;
17052;SDS011;8643;48.824;11.422;2022-09-03T11:49:26;4.53;;;4.05;;
17052;SDS011;8643;48.824;11.422;2022-09-03T11:51:58;4.32;;;3.42;;
17052;SDS011;8643;48.824;11.422;2022-09-03T11:54:30;3.78;;;3.33;;
17052;SDS011;8643;48.824;11.422;2022-09-03T11:57:12;6.13;;;3.90;;
17052;SDS011;8643;48.824;11.422;2022-09-03T11:59:47;5.63;;;3.83;;
17052;SDS011;8643;48.824;11.422;2022-09-03T12:02:21;5.97;;;3.63;;
17052;SDS011;8643;48.824;11.422;2022-09-03T12:05:00;6.55;;;3.72;;
17052;SDS011;8643;48.824;11.422;2022-09-03T12:11:13;8.93;;;4.55;;
17052;SDS011;8643;48.824;11.422;2022-09-03T12:14:04;4.32;;;3.33;;
17052;SDS011;8643;48.824;11.422;2022-09-03T12:16:56;4.40;;;3.38;;
17052;SDS011;8643;48.824;11.422;2022-09-03T12:19:38;6.70;;;4.10;;
17052;SDS011;8643;48.824;11.422;2022-09-03T12:22:16;4.55;;;3.30;;
17052;SDS011;8643;48.824;11.422;2022-09-03T12:24:47;3.80;;;3.17;;
17052;SDS011;8643;48.824;11.422;2022-09-03T12:27:18;3.97;;;3.40;;
17052;SDS011;8643;48.824;11.422;2022-09-03T12:29:52;3.50;;;3.17;;
17052;SDS011;8643;48.824;11.422;2022-09-03T12:32:26;4.15;;;3.38;;
17052;SDS011;8643;48.824;11.422;2022-09-03T12:34:57;4.82;;;3.05;;
17052;SDS011;8643;48.824;11.422;2022-09-03T12:37:38;3.38;;;2.75;;
17052;SDS011;8643;48.824;11.422;2022-09-03T12:40:31;7.03;;;3.20;;
17052;SDS011;8643;48.824;11.422;2022-09-03T12:43:10;3.60;;;3.05;;
17052;SDS011;8643;48.824;11.422;2022-09-03T12:46:02;4.40;;;2.88;;
17052;SDS011;8643;48.824;11.422;2022-09-03T12:48:38;3.60;;;3.03;;
17052;SDS011;8643;48.824;11.422;2022-09-03T12:51:40;2.92;;;2.63;;
17052;SDS011;8643;48.824;11.422;2022-09-03T12:54:20;3.88;;;2.80;;
17052;SDS011;8643;48.824;11.422;2022-09-03T12:56:55;6.57;;;2.80;;
17052;SDS011;8643;48.824;11.422;2022-09-03T12:59:27;4.25;;;2.80;;
17052;SDS011;8643;48.824;11.422;2022-09-03T13:02:03;5.53;;;2.97;;
17052;SDS011;8643;48.824;11.422;2022-09-03T13:04:42;4.70;;;3.08;;
17052;SDS011;8643;48.824;11.422;2022-09-03T13:07:13;6.00;;;3.20;;
17052;SDS011;8643;48.824;11.422;2022-09-03T13:09:57;3.90;;;3.28;;
17052;SDS011;8643;48.824;11.422;2022-09-03T13:12:32;4.93;;;3.13;;
17052;SDS011;8643;48.824;11.422;2022-09-03T13:15:16;3.28;;;2.70;;
17052;SDS011;8643;48.824;11.422;2022-09-03T13:20:53;6.47;;;2.80;;
17052;SDS011;8643;48.824;11.422;2022-09-03T13:26:44;3.05;;;2.70;;
17052;SDS011;8643;48.824;11.422;2022-09-03T13:29:44;5.38;;;2.50;;
17052;SDS011;8643;48.824;11.422;2022-09-03T13:32:32;4.97;;;2.60;;
17052;SDS011;8643;48.824;11.422;2022-09-03T13:35:20;3.85;;;2.50;;
17052;SDS011;8643;48.824;11.422;2022-09-03T13:37:58;3.10;;;2.72;;
17052;SDS011;8643;48.824;11.422;2022-09-03T13:40:40;5.22;;;3.20;;
17052;SDS011;8643;48.824;11.422;2022-09-03T13:43:19;3.10;;;2.80;;
17052;SDS011;8643;48.824;11.422;2022-09-03T13:45:56;3.83;;;2.58;;
17052;SDS011;8643;48.824;11.422;2022-09-03T13:48:30;4.07;;;3.00;;
17052;SDS011;8643;48.824;11.422;2022-09-03T13:51:25;3.53;;;2.70;;
17052;SDS011;8643;48.824;11.422;2022-09-03T13:53:58;3.38;;;2.80;;
17052;SDS011;8643;48.824;11.422;2022-09-03T13:56:45;6.10;;;3.22;;
17052;SDS011;8643;48.824;11.422;2022-09-03T13:59:26;3.88;;;2.90;;
17052;SDS011;8643;48.824;11.422;2022-09-03T14:02:08;5.00;;;2.88;;
17052;SDS011;8643;48.824;11.422;2022-09-03T14:04:50;3.10;;;2.80;;
17052;SDS011;8643;48.824;11.422;2022-09-03T14:07:43;3.47;;;2.92;;
17052;SDS011;8643;48.824;11.422;2022-09-03T14:10:26;4.22;;;3.10;;
17052;SDS011;8643;48.824;11.422;2022-09-03T14:13:20;4.90;;;3.03;;
17052;SDS011;8643;48.824;11.422;2022-09-03T14:15:59;5.25;;;3.08;;
17052;SDS011;8643;48.824;11.422;2022-09-03T14:18:44;3.30;;;3.00;;
17052;SDS011;8643;48.824;11.422;2022-09-03T14:21:24;4.25;;;3.30;;
17052;SDS011;8643;48.824;11.422;2022-09-03T14:24:03;5.45;;;3.30;;
17052;SDS011;8643;48.824;11.422;2022-09-03T14:26:48;4.85;;;3.40;;
17052;SDS011;8643;48.824;11.422;2022-09-03T14:29:20;4.35;;;3.03;;
17052;SDS011;8643;48.824;11.422;2022-09-03T14:31:59;3.88;;;3.40;;
17052;SDS011;8643;48.824;11.422;2022-09-03T14:34:54;4.38;;;3.15;;
17052;SDS011;8643;48.824;11.422;2022-09-03T14:37:58;3.42;;;3.13;;
17052;SDS011;8643;48.824;11.422;2022-09-03T14:41:20;3.65;;;2.83;;
17052;SDS011;8643;48.824;11.422;2022-09-03T14:44:21;3.17;;;2.75;;
17052;SDS011;8643;48.824;11.422;2022-09-03T14:47:14;4.07;;;3.25;;
17052;SDS011;8643;48.824;11.422;2022-09-03T14:50:02;4.97;;;3.30;;
17052;SDS011;8643;48.824;11.422;2022-09-03T14:53:04;6.10;;;3.80;;
17052;SDS011;8643;48.824;11.422;2022-09-03T14:55:57;9.05;;;4.78;;
17052;SDS011;8643;48.824;11.422;2022-09-03T15:02:03;9.57;;;5.78;;
17052;SDS011;8643;48.824;11.422;2022-09-03T15:04:54;5.47;;;4.97;;
17052;SDS011;8643;48.824;11.422;2022-09-03T15:07:42;7.82;;;4.93;;
17052;SDS011;8643;48.824;11.422;2022-09-03T15:10:21;6.30;;;5.18;;
17052;SDS011;8643;48.824;11.422;2022-09-03T15:13:05;5.80;;;5.20;;
17052;SDS011;8643;48.824;11.422;2022-09-03T15:15:46;6.00;;;5.40;;
17052;SDS011;8643;48.824;11.422;2022-09-03T15:18:37;7.25;;;5.90;;
17052;SDS011;8643;48.824;11.422;2022-09-03T15:21:31;6.43;;;4.53;;
17052;SDS011;8643;48.824;11.422;2022-09-03T15:24:24;4.82;;;4.30;;
17052;SDS011;8643;48.824;11.422;2022-09-03T15:27:16;6.25;;;3.90;;
17052;SDS011;8643;48.824;11.422;2022-09-03T15:30:05;4.88;;;3.80;;
17052;SDS011;8643;48.824;11.422;2022-09-03T15:32:44;6.90;;;3.67;;
17052;SDS011;8643;48.824;11.422;2022-09-03T15:35:32;3.80;;;3.40;;
17052;SDS011;8643;48.824;11.422;2022-09-03T15:38:33;3.20;;;2.90;;
17052;SDS011;8643;48.824;11.422;2022-09-03T15:41:17;4.15;;;2.70;;
17052;SDS011;8643;48.824;11.422;2022-09-03T15:44:02;2.05;;;1.85;;
17052;SDS011;8643;48.824;11.422;2022-09-03T15:46:48;3.08;;;1.58;;
17052;SDS011;8643;48.824;11.422;2022-09-03T15:49:28;3.58;;;1.60;;
17052;SDS011;8643;48.824;11.422;2022-09-03T15:52:17;1.63;;;1.20;;
17052;SDS011;8643;48.824;11.422;2022-09-03T15:55:05;1.55;;;1.10;;
17052;SDS011;8643;48.824;11.422;2022-09-03T15:57:40;1.13;;;1.02;;
17052;SDS011;8643;48.824;11.422;2022-09-03T16:00:20;2.50;;;1.13;;
17052;SDS011;8643;48.824;11.422;2022-09-03T16:02:52;2.10;;;1.33;;
17052;SDS011;8643;48.824;11.422;2022-09-03T16:05:34;3.30;;;0.90;;
17052;SDS011;8643;48.824;11.422;2022-09-03T16:08:12;1.50;;;0.82;;